Terminal Aerodrome Forecast
Issued by NWS

Home | Current Version | Previous Version | Text Only | Print | Product List | Glossary Off
Versions: 1 2 3 4 5 6 7 8 9 10 11 12 13 14 15 16 17 18 19 20 21

970
FTUS42 KMHX 211746
TAFISO
TAF
KISO 211746Z 2118/2218 33010KT P6SM BKN025
     FM211900 34010KT P6SM BKN040
     FM220000 VRB03KT P6SM VCSH BKN090
     FM220600 VRB04KT P6SM OVC007
     FM221600 36006KT 5SM -SHRA OVC015
      AMD LTD TO CLD VIS AND WIND=

USA.gov is the U.S. government's official web portal to all federal, state and local government web resources and services.